createdAt,value
2022-11-29T00:01:26.586Z,101179.84
2022-11-29T00:03:53.871Z,101179.16
2022-11-29T00:06:23.115Z,101184.46
2022-11-29T00:08:50.607Z,101180.10
2022-11-29T00:11:41.997Z,101180.00
2022-11-29T00:14:11.191Z,101177.95
2022-11-29T00:16:40.994Z,101179.11
2022-11-29T00:19:12.040Z,101180.74
2022-11-29T00:21:38.884Z,101184.08
2022-11-29T00:24:06.336Z,101186.16
2022-11-29T00:26:33.179Z,101187.05
2022-11-29T00:29:00.799Z,101189.36
2022-11-29T00:31:30.721Z,101193.66
2022-11-29T00:34:02.224Z,101190.23
2022-11-29T00:36:30.054Z,101186.15
2022-11-29T00:38:56.816Z,101183.01
2022-11-29T00:41:23.585Z,101177.71
2022-11-29T00:43:50.239Z,101182.25
2022-11-29T00:46:17.214Z,101180.80
2022-11-29T00:48:43.899Z,101178.52
2022-11-29T00:51:10.601Z,101179.07
2022-11-29T00:53:38.073Z,101177.82
2022-11-29T00:56:06.113Z,101173.90
2022-11-29T00:58:33.301Z,101171.12
2022-11-29T01:00:59.997Z,101168.86
2022-11-29T01:03:26.786Z,101170.16
2022-11-29T01:05:53.754Z,101167.14
2022-11-29T01:08:20.466Z,101164.50
2022-11-29T01:10:47.195Z,101166.92
2022-11-29T01:13:14.543Z,101161.01
2022-11-29T01:15:41.697Z,101162.15
2022-11-29T01:18:08.556Z,101158.66
2022-11-29T01:20:35.240Z,101158.61
2022-11-29T01:23:02.070Z,101157.34
2022-11-29T01:25:29.526Z,101155.75
2022-11-29T01:27:56.317Z,101154.30
2022-11-29T01:30:23.041Z,101144.28
2022-11-29T01:32:49.854Z,101145.40
2022-11-29T01:35:16.748Z,101145.52
2022-11-29T01:37:43.434Z,101137.96
2022-11-29T01:40:10.547Z,101140.21
2022-11-29T01:42:37.180Z,101141.40
2022-11-29T01:45:23.897Z,101140.27
2022-11-29T01:47:52.837Z,101138.02
2022-11-29T01:50:21.198Z,101138.20
2022-11-29T01:52:48.462Z,101134.79
2022-11-29T01:58:00.608Z,101131.07
2022-11-29T02:00:27.282Z,101129.79
2022-11-29T02:03:10.322Z,101135.96
2022-11-29T02:05:41.477Z,101130.73
2022-11-29T02:08:09.722Z,101130.29
2022-11-29T02:11:14.996Z,101132.31
2022-11-29T02:13:54.565Z,101135.40
2022-11-29T02:16:56.517Z,101131.67
2022-11-29T02:19:45.340Z,101135.94
2022-11-29T02:22:24.679Z,101135.90
2022-11-29T02:25:00.448Z,101134.31
2022-11-29T02:27:42.652Z,101138.89
2022-11-29T02:30:24.171Z,101138.41
2022-11-29T02:33:22.744Z,101137.92
2022-11-29T02:35:52.368Z,101136.64
2022-11-29T02:38:45.352Z,101136.95
2022-11-29T02:41:18.412Z,101144.21
2022-11-29T02:44:37.836Z,101142.94
2022-11-29T02:47:07.013Z,101144.77
2022-11-29T02:49:51.744Z,101145.05
2022-11-29T02:52:28.159Z,101145.59
2022-11-29T02:55:15.317Z,101144.58
2022-11-29T02:58:24.257Z,101146.89
2022-11-29T03:01:05.156Z,101146.25
2022-11-29T03:03:56.497Z,101152.20
2022-11-29T03:06:53.048Z,101151.88
2022-11-29T03:09:37.139Z,101151.23
2022-11-29T03:12:24.828Z,101157.61
2022-11-29T03:15:11.785Z,101156.54
2022-11-29T03:18:12.473Z,101155.98
2022-11-29T03:20:47.836Z,101155.95
2022-11-29T03:23:37.080Z,101155.85
2022-11-29T03:26:26.932Z,101156.79
2022-11-29T03:29:07.339Z,101156.43
2022-11-29T03:31:58.273Z,101156.73
2022-11-29T03:34:30.511Z,101157.86
2022-11-29T03:37:06.620Z,101157.53
2022-11-29T03:39:43.112Z,101153.89
2022-11-29T03:43:14.597Z,101154.86
2022-11-29T03:46:02.906Z,101158.13
2022-11-29T03:48:35.583Z,101162.09
2022-11-29T03:51:14.384Z,101159.41
2022-11-29T03:53:59.906Z,101162.54
2022-11-29T03:56:34.227Z,101165.73
2022-11-29T03:59:42.622Z,101164.57
2022-11-29T04:02:56.630Z,101170.23
2022-11-29T04:05:48.478Z,101169.92
2022-11-29T04:08:38.584Z,101173.19
2022-11-29T04:11:23.458Z,101173.52
2022-11-29T04:14:28.568Z,101169.06
2022-11-29T04:17:13.852Z,101172.75
2022-11-29T04:20:05.445Z,101175.63
2022-11-29T04:22:43.505Z,101180.20
2022-11-29T04:25:13.076Z,101184.07
2022-11-29T04:28:23.296Z,101187.83
2022-11-29T04:31:27.488Z,101190.27
2022-11-29T04:34:21.221Z,101187.16
2022-11-29T04:37:09.484Z,101187.89
2022-11-29T04:39:55.966Z,101190.27
2022-11-29T04:43:00.593Z,101192.80
2022-11-29T04:45:52.469Z,101193.20
2022-11-29T04:48:42.972Z,101199.16
2022-11-29T04:51:34.919Z,101196.10
2022-11-29T04:54:24.508Z,101201.05
2022-11-29T04:56:59.100Z,101203.64
2022-11-29T04:59:36.895Z,101205.73
2022-11-29T05:02:21.961Z,101206.30
2022-11-29T05:05:33.657Z,101209.08
2022-11-29T05:08:14.650Z,101213.00
2022-11-29T05:10:59.452Z,101214.76
2022-11-29T05:13:44.649Z,101216.18
2022-11-29T05:16:25.194Z,101215.71
2022-11-29T05:19:07.813Z,101216.70
2022-11-29T05:21:56.302Z,101220.90
2022-11-29T05:24:32.051Z,101222.08
2022-11-29T05:27:04.736Z,101223.40
2022-11-29T05:29:42.087Z,101226.34
2022-11-29T05:32:24.020Z,101226.28
2022-11-29T05:35:09.236Z,101233.42
2022-11-29T05:37:49.248Z,101231.80
2022-11-29T05:40:48.238Z,101233.85
2022-11-29T05:43:44.303Z,101242.44
2022-11-29T05:46:29.951Z,101242.05
2022-11-29T05:49:23.753Z,101242.88
2022-11-29T05:52:00.294Z,101243.31
2022-11-29T05:54:37.070Z,101245.02
2022-11-29T05:57:31.571Z,101252.15
2022-11-29T06:00:02.858Z,101251.80
2022-11-29T06:03:13.548Z,101257.38
2022-11-29T06:05:48.656Z,101261.28
2022-11-29T06:08:44.740Z,101264.52
2022-11-29T06:11:16.648Z,101259.34
2022-11-29T06:14:07.866Z,101261.36
2022-11-29T06:16:51.313Z,101268.46
2022-11-29T06:19:57.137Z,101270.05
2022-11-29T06:22:23.753Z,101271.87
2022-11-29T06:24:53.582Z,101273.55
2022-11-29T06:27:42.574Z,101278.97
2022-11-29T06:30:14.231Z,101277.48
2022-11-29T06:33:01.398Z,101276.71
2022-11-29T06:35:59.705Z,101281.48
2022-11-29T06:38:29.819Z,101285.84
2022-11-29T06:41:01.769Z,101285.17
2022-11-29T06:43:30.712Z,101288.39
2022-11-29T06:46:03.439Z,101284.98
2022-11-29T06:48:38.571Z,101289.35
2022-11-29T06:51:14.258Z,101291.80
2022-11-29T06:53:52.125Z,101294.95
2022-11-29T06:56:35.659Z,101293.31
2022-11-29T06:59:30.390Z,101293.64
2022-11-29T07:02:38.068Z,101296.94
2022-11-29T07:05:13.192Z,101296.73
2022-11-29T07:07:42.088Z,101298.90
2022-11-29T07:10:17.262Z,101302.35
2022-11-29T07:12:49.094Z,101305.61
2022-11-29T07:15:18.285Z,101305.29
2022-11-29T07:17:57.180Z,101305.45
2022-11-29T07:20:52.312Z,101310.72
2022-11-29T07:23:33.414Z,101305.02
2022-11-29T07:26:26.339Z,101311.50
2022-11-29T07:29:19.173Z,101312.90
2022-11-29T07:31:48.933Z,101309.45
2022-11-29T07:34:48.709Z,101309.38
2022-11-29T07:37:42.851Z,101314.82
2022-11-29T07:40:37.317Z,101320.82
2022-11-29T07:43:13.765Z,101319.70
2022-11-29T07:45:40.698Z,101317.50
2022-11-29T07:48:07.740Z,101319.50
2022-11-29T07:50:35.618Z,101320.89
2022-11-29T07:53:02.753Z,101323.56
2022-11-29T07:55:29.913Z,101322.70
2022-11-29T07:57:56.739Z,101324.51
2022-11-29T08:00:23.608Z,101326.27
2022-11-29T08:02:51.299Z,101326.54
2022-11-29T08:05:18.562Z,101325.05
2022-11-29T08:07:46.533Z,101325.15
2022-11-29T08:10:16.334Z,101321.73
2022-11-29T08:12:45.334Z,101322.25
2022-11-29T08:15:12.585Z,101323.75
2022-11-29T08:17:39.911Z,101326.16
2022-11-29T08:20:08.787Z,101323.39
2022-11-29T08:22:35.819Z,101322.44
2022-11-29T08:25:03.491Z,101323.64
2022-11-29T08:27:31.081Z,101324.66
2022-11-29T08:29:57.907Z,101327.52
2022-11-29T08:32:25.695Z,101327.73
2022-11-29T08:34:52.736Z,101326.02
2022-11-29T08:37:19.764Z,101333.89
2022-11-29T08:39:46.490Z,101331.89
2022-11-29T08:42:13.286Z,101334.05
2022-11-29T08:44:40.185Z,101333.55
2022-11-29T08:47:25.703Z,101329.28
2022-11-29T08:50:01.317Z,101332.55
2022-11-29T08:52:54.761Z,101332.10
2022-11-29T08:55:24.102Z,101333.88
2022-11-29T08:57:52.289Z,101333.05
2022-11-29T09:00:21.740Z,101331.05
2022-11-29T09:02:49.201Z,101330.38
2022-11-29T09:05:16.446Z,101324.84
2022-11-29T09:07:43.589Z,101328.59
2022-11-29T09:10:12.283Z,101329.27
2022-11-29T09:12:40.240Z,101326.25
2022-11-29T09:15:09.351Z,101318.41
2022-11-29T09:17:36.220Z,101323.61
2022-11-29T09:20:04.678Z,101322.24
2022-11-29T09:22:31.637Z,101324.11
2022-11-29T09:24:58.575Z,101324.98
2022-11-29T09:27:25.271Z,101322.00
2022-11-29T09:29:52.140Z,101320.50
2022-11-29T09:32:18.938Z,101318.89
2022-11-29T09:34:46.189Z,101314.23
2022-11-29T09:37:13.118Z,101312.29
2022-11-29T09:39:41.608Z,101313.83
2022-11-29T09:42:37.770Z,101315.50
2022-11-29T09:45:11.230Z,101315.77
2022-11-29T09:47:53.086Z,101313.73
2022-11-29T09:50:54.285Z,101317.05
2022-11-29T09:53:43.642Z,101318.33
2022-11-29T09:56:27.134Z,101317.03
2022-11-29T09:59:00.688Z,101315.37
2022-11-29T10:01:33.201Z,101318.96
2022-11-29T10:04:09.015Z,101317.23
2022-11-29T10:06:40.900Z,101315.16
2022-11-29T10:09:24.410Z,101311.03
2022-11-29T10:12:06.199Z,101312.11
2022-11-29T10:14:41.427Z,101305.52
2022-11-29T10:17:22.924Z,101303.17
2022-11-29T10:19:58.723Z,101299.70
2022-11-29T10:22:56.153Z,101300.89
2022-11-29T10:25:31.700Z,101297.02
2022-11-29T10:27:58.726Z,101293.34
2022-11-29T10:30:25.814Z,101297.49
2022-11-29T10:32:58.277Z,101295.05
2022-11-29T10:35:25.045Z,101296.52
2022-11-29T10:38:22.722Z,101297.52
2022-11-29T10:40:47.491Z,101297.77
2022-11-29T10:43:14.354Z,101298.36
2022-11-29T10:45:50.621Z,101296.90
2022-11-29T10:48:20.065Z,101297.17
2022-11-29T10:50:49.552Z,101299.79
2022-11-29T10:53:22.820Z,101303.20
2022-11-29T10:56:06.093Z,101304.18
2022-11-29T10:58:32.896Z,101307.83
2022-11-29T11:01:02.239Z,101308.81
2022-11-29T11:03:41.836Z,101307.07
2022-11-29T11:06:13.715Z,101302.64
2022-11-29T11:08:45.410Z,101306.67
2022-11-29T11:11:13.784Z,101310.16
2022-11-29T11:13:44.350Z,101304.91
2022-11-29T11:16:24.417Z,101306.55
2022-11-29T11:18:51.286Z,101304.80
2022-11-29T11:21:21.229Z,101303.14
2022-11-29T11:24:02.503Z,101307.13
2022-11-29T11:26:43.137Z,101306.66
2022-11-29T11:29:18.241Z,101308.29
2022-11-29T11:31:52.087Z,101304.41
2022-11-29T11:34:34.385Z,101307.06
2022-11-29T11:37:20.144Z,101304.92
2022-11-29T11:39:50.371Z,101311.78
2022-11-29T11:42:38.161Z,101309.51
2022-11-29T11:45:11.579Z,101311.14
2022-11-29T11:47:45.172Z,101313.77
2022-11-29T11:50:34.890Z,101314.94
2022-11-29T11:53:06.798Z,101314.02
2022-11-29T11:55:38.162Z,101317.73
2022-11-29T11:58:09.774Z,101313.20
2022-11-29T12:01:03.878Z,101317.11
2022-11-29T12:04:02.188Z,101319.27
2022-11-29T12:06:42.311Z,101320.18
2022-11-29T12:09:09.207Z,101318.53
2022-11-29T12:12:04.988Z,101321.48
2022-11-29T12:14:52.101Z,101324.98
2022-11-29T12:17:43.544Z,101327.11
2022-11-29T12:20:37.544Z,101326.74
2022-11-29T12:23:12.837Z,101325.86
2022-11-29T12:25:46.862Z,101329.42
2022-11-29T12:28:20.564Z,101329.10
2022-11-29T12:31:12.196Z,101328.75
2022-11-29T12:34:05.777Z,101329.45
2022-11-29T12:36:57.274Z,101328.59
2022-11-29T12:39:43.187Z,101338.70
2022-11-29T12:42:31.617Z,101337.02
2022-11-29T12:45:19.776Z,101336.65
2022-11-29T12:48:13.427Z,101335.95
2022-11-29T12:50:48.848Z,101343.29
2022-11-29T12:53:54.935Z,101343.50
2022-11-29T12:57:00.180Z,101342.03
2022-11-29T12:59:34.327Z,101344.13
2022-11-29T13:02:17.393Z,101345.70
2022-11-29T13:05:34.074Z,101349.41
2022-11-29T13:08:21.394Z,101354.84
2022-11-29T13:11:31.157Z,101359.18
2022-11-29T13:14:44.384Z,101362.19
2022-11-29T13:17:30.790Z,101363.11
2022-11-29T13:20:10.645Z,101370.43
2022-11-29T13:22:56.417Z,101374.11
2022-11-29T13:25:36.059Z,101373.89
2022-11-29T13:28:26.000Z,101377.57
2022-11-29T13:30:57.049Z,101375.98
2022-11-29T13:33:30.756Z,101377.52
2022-11-29T13:36:12.677Z,101380.88
2022-11-29T13:38:51.703Z,101383.32
2022-11-29T13:41:34.218Z,101383.66
2022-11-29T13:44:20.223Z,101385.73
2022-11-29T13:47:05.686Z,101385.53
2022-11-29T13:49:53.255Z,101388.12
2022-11-29T13:52:39.883Z,101387.54
2022-11-29T13:55:12.605Z,101391.45
2022-11-29T14:00:44.387Z,101390.33
2022-11-29T14:03:31.092Z,101390.73
2022-11-29T14:06:05.148Z,101392.27
2022-11-29T14:09:17.724Z,101390.27
2022-11-29T14:11:54.439Z,101392.11
2022-11-29T14:14:36.240Z,101392.67
2022-11-29T14:17:05.985Z,101387.84
2022-11-29T14:19:37.415Z,101388.55
2022-11-29T14:22:06.966Z,101384.70
2022-11-29T14:24:36.554Z,101386.31
2022-11-29T14:27:06.191Z,101385.75
2022-11-29T14:29:48.406Z,101386.45
2022-11-29T14:32:25.293Z,101388.88
2022-11-29T14:35:17.035Z,101390.67
2022-11-29T14:37:52.666Z,101388.95
2022-11-29T14:40:25.356Z,101388.93
2022-11-29T14:42:52.930Z,101384.30
2022-11-29T14:45:32.923Z,101386.52
2022-11-29T14:48:01.975Z,101391.29
2022-11-29T14:50:40.085Z,101389.65
2022-11-29T14:53:27.839Z,101389.23
2022-11-29T14:56:32.345Z,101390.73
2022-11-29T14:59:36.614Z,101386.70
2022-11-29T15:02:32.669Z,101385.85
2022-11-29T15:05:25.728Z,101389.45
2022-11-29T15:08:20.447Z,101389.11
2022-11-29T15:10:53.681Z,101393.89
2022-11-29T15:13:31.949Z,101393.55
2022-11-29T15:16:38.843Z,101397.74
2022-11-29T15:19:29.358Z,101399.44
2022-11-29T15:22:21.405Z,101399.11
2022-11-29T15:24:51.250Z,101400.69
2022-11-29T15:27:18.432Z,101402.63
2022-11-29T15:29:48.599Z,101402.92
2022-11-29T15:32:28.263Z,101404.80
2022-11-29T15:34:56.499Z,101409.33
2022-11-29T15:37:24.508Z,101409.05
2022-11-29T15:40:10.605Z,101411.48
2022-11-29T15:42:51.467Z,101409.67
2022-11-29T15:45:34.960Z,101412.08
2022-11-29T15:48:14.155Z,101415.91
2022-11-29T15:50:53.549Z,101419.10
2022-11-29T15:53:27.637Z,101422.47
2022-11-29T15:56:00.729Z,101423.55
2022-11-29T15:58:29.501Z,101429.37
2022-11-29T16:01:00.058Z,101428.30
2022-11-29T16:03:33.201Z,101427.34
2022-11-29T16:06:08.910Z,101429.35
2022-11-29T16:08:42.219Z,101429.36
2022-11-29T16:11:17.183Z,101424.77
2022-11-29T16:14:04.572Z,101428.50
2022-11-29T16:16:34.265Z,101427.80
2022-11-29T16:19:16.869Z,101428.55
2022-11-29T16:21:44.492Z,101429.44
2022-11-29T16:24:14.286Z,101426.91
2022-11-29T16:26:45.739Z,101426.61
2022-11-29T16:29:27.913Z,101427.88
2022-11-29T16:31:55.344Z,101431.25
2022-11-29T16:34:31.399Z,101433.19
2022-11-29T16:37:14.496Z,101439.17
2022-11-29T16:39:46.785Z,101438.66
2022-11-29T16:42:18.285Z,101441.04
2022-11-29T16:44:49.150Z,101441.75
2022-11-29T16:47:24.307Z,101446.13
2022-11-29T16:50:03.717Z,101444.91
2022-11-29T16:52:32.941Z,101447.63
2022-11-29T16:55:00.229Z,101442.72
2022-11-29T16:57:28.731Z,101444.66
2022-11-29T16:59:55.480Z,101447.35
2022-11-29T17:02:22.673Z,101447.23
2022-11-29T17:04:51.783Z,101449.65
2022-11-29T17:07:28.429Z,101448.83
2022-11-29T17:09:56.314Z,101447.22
2022-11-29T17:12:26.012Z,101452.11
2022-11-29T17:14:52.717Z,101447.45
2022-11-29T17:17:19.714Z,101452.04
2022-11-29T17:19:47.140Z,101457.42
2022-11-29T17:22:13.981Z,101460.82
2022-11-29T17:24:46.233Z,101454.98
2022-11-29T17:27:14.551Z,101462.59
2022-11-29T17:29:41.305Z,101459.83
2022-11-29T17:32:08.183Z,101462.08
2022-11-29T17:34:35.299Z,101458.73
2022-11-29T17:37:02.103Z,101466.02
2022-11-29T17:39:28.989Z,101461.73
2022-11-29T17:41:55.897Z,101469.72
2022-11-29T17:44:23.201Z,101469.48
2022-11-29T17:46:49.878Z,101471.14
2022-11-29T17:49:18.732Z,101474.13
2022-11-29T17:51:53.641Z,101469.87
2022-11-29T17:54:21.633Z,101471.23
2022-11-29T17:56:48.341Z,101469.76
2022-11-29T17:59:15.664Z,101473.61
2022-11-29T18:01:42.387Z,101470.69
2022-11-29T18:04:09.351Z,101468.80
2022-11-29T18:06:39.349Z,101470.69
2022-11-29T18:09:08.076Z,101472.26
2022-11-29T18:11:48.605Z,101473.89
2022-11-29T18:14:19.202Z,101469.81
2022-11-29T18:16:46.385Z,101472.59
2022-11-29T18:19:16.835Z,101472.11
2022-11-29T18:21:43.729Z,101472.49
2022-11-29T18:24:11.112Z,101473.69
2022-11-29T18:26:38.626Z,101472.80
2022-11-29T18:29:06.923Z,101475.38
2022-11-29T18:31:36.361Z,101477.77
2022-11-29T18:34:13.117Z,101475.59
2022-11-29T18:36:43.276Z,101477.20
2022-11-29T18:39:19.072Z,101479.73
2022-11-29T18:41:48.072Z,101480.38
2022-11-29T18:44:17.113Z,101479.73
2022-11-29T18:46:45.117Z,101480.19
2022-11-29T18:49:16.853Z,101485.16
2022-11-29T18:51:45.539Z,101482.98
2022-11-29T18:54:13.913Z,101482.66
2022-11-29T18:56:41.004Z,101486.09
2022-11-29T18:59:11.840Z,101480.67
2022-11-29T19:01:42.748Z,101480.22
2022-11-29T19:04:13.350Z,101479.80
2022-11-29T19:06:40.457Z,101483.55
2022-11-29T19:12:23.386Z,101492.77
2022-11-29T19:14:50.386Z,101496.57
2022-11-29T19:17:43.500Z,101497.20
2022-11-29T19:23:27.472Z,101507.08
2022-11-29T19:26:34.626Z,101504.80
2022-11-29T19:29:01.905Z,101501.34
2022-11-29T19:31:29.138Z,101504.59
2022-11-29T19:33:57.359Z,101506.23
2022-11-29T19:36:32.128Z,101506.79
2022-11-29T19:50:22.271Z,101517.00
2022-11-29T19:52:49.037Z,101516.96
2022-11-29T19:55:16.214Z,101517.99
2022-11-29T19:57:43.359Z,101516.79
2022-11-29T20:00:16.150Z,101514.83
2022-11-29T20:02:42.884Z,101510.39
2022-11-29T20:05:12.748Z,101513.98
2022-11-29T20:07:39.637Z,101517.34
2022-11-29T20:10:08.185Z,101519.58
2022-11-29T20:12:34.877Z,101519.92
2022-11-29T20:15:01.714Z,101522.96
2022-11-29T20:17:28.937Z,101525.33
2022-11-29T20:19:55.705Z,101526.66
2022-11-29T20:22:23.205Z,101529.05
2022-11-29T20:24:50.241Z,101526.88
2022-11-29T20:27:17.165Z,101530.62
2022-11-29T20:29:44.190Z,101527.99
2022-11-29T20:32:11.486Z,101531.59
2022-11-29T20:34:38.806Z,101530.16
2022-11-29T20:37:28.425Z,101528.13
2022-11-29T20:40:02.650Z,101526.80
2022-11-29T20:42:29.656Z,101535.54
2022-11-29T20:44:57.497Z,101532.09
2022-11-29T20:47:26.666Z,101530.68
2022-11-29T20:49:54.681Z,101529.18
2022-11-29T20:52:38.657Z,101530.60
2022-11-29T20:55:05.936Z,101529.23
2022-11-29T20:57:32.762Z,101531.48
2022-11-29T20:59:59.727Z,101533.20
2022-11-29T21:02:26.645Z,101534.52
2022-11-29T21:04:53.593Z,101537.55
2022-11-29T21:07:20.556Z,101537.09
2022-11-29T21:09:47.289Z,101534.46
2022-11-29T21:12:14.721Z,101534.92
2022-11-29T21:14:41.674Z,101534.66
2022-11-29T21:17:09.152Z,101541.77
2022-11-29T21:19:36.333Z,101541.16
2022-11-29T21:22:20.590Z,101539.75
2022-11-29T21:25:19.836Z,101543.94
2022-11-29T21:27:49.354Z,101549.62
2022-11-29T21:30:24.842Z,101552.64
2022-11-29T21:32:52.246Z,101551.08
2022-11-29T21:35:19.611Z,101553.77
2022-11-29T21:37:46.549Z,101551.66
2022-11-29T21:40:14.612Z,101550.48
2022-11-29T21:42:41.277Z,101550.25
2022-11-29T21:45:14.848Z,101557.26
2022-11-29T21:47:44.269Z,101554.61
2022-11-29T21:50:12.644Z,101558.77
2022-11-29T21:52:40.104Z,101558.52
2022-11-29T21:55:07.145Z,101559.97
2022-11-29T21:57:34.426Z,101560.23
2022-11-29T22:00:01.234Z,101563.20
2022-11-29T22:02:28.184Z,101562.90
2022-11-29T22:04:54.939Z,101560.27
2022-11-29T22:07:21.634Z,101558.59
2022-11-29T22:09:48.352Z,101561.88
2022-11-29T22:12:33.139Z,101564.64
2022-11-29T22:15:01.170Z,101569.34
2022-11-29T22:17:28.102Z,101572.61
2022-11-29T22:19:54.796Z,101572.98
2022-11-29T22:22:21.590Z,101574.98
2022-11-29T22:24:48.614Z,101576.05
2022-11-29T22:27:17.910Z,101575.11
2022-11-29T22:29:45.185Z,101577.52
2022-11-29T22:32:12.039Z,101582.45
2022-11-29T22:34:38.666Z,101589.90
2022-11-29T22:37:05.917Z,101582.75
2022-11-29T22:39:32.856Z,101581.77
2022-11-29T22:41:59.585Z,101580.80
2022-11-29T22:44:26.192Z,101583.98
2022-11-29T22:46:53.041Z,101584.48
2022-11-29T22:49:19.818Z,101580.35
2022-11-29T22:51:46.980Z,101577.67
2022-11-29T22:54:16.486Z,101577.97
2022-11-29T22:56:44.282Z,101571.59
2022-11-29T22:59:11.923Z,101569.35
2022-11-29T23:01:40.752Z,101569.30
2022-11-29T23:04:09.360Z,101570.25
2022-11-29T23:06:38.683Z,101566.92
2022-11-29T23:09:12.434Z,101565.08
2022-11-29T23:11:39.165Z,101566.52
2022-11-29T23:14:05.883Z,101568.48
2022-11-29T23:16:33.628Z,101563.86
2022-11-29T23:19:02.726Z,101562.27
2022-11-29T23:21:31.749Z,101558.08
2022-11-29T23:24:00.971Z,101557.41
2022-11-29T23:26:39.735Z,101554.95
2022-11-29T23:29:08.947Z,101557.00
2022-11-29T23:31:35.821Z,101556.99
2022-11-29T23:34:03.080Z,101559.25
2022-11-29T23:36:30.015Z,101557.23
2022-11-29T23:38:56.727Z,101555.27
2022-11-29T23:41:23.476Z,101554.98
2022-11-29T23:43:50.324Z,101555.71
2022-11-29T23:46:20.646Z,101554.08
2022-11-29T23:48:48.293Z,101549.20
2022-11-29T23:51:15.560Z,101544.69
2022-11-29T23:53:44.963Z,101542.98
2022-11-29T23:56:14.673Z,101546.85
2022-11-29T23:58:41.691Z,101544.78
